Observation data for Sundown on 03/11/2018      Previous  Date  Next       Current Mesonet Observations  Soil Data  Daily Summary Page  Observations in Plain Language
KSDS 110600Z 01014G20KT 16/M11 A2994 RMK A01 T01601114  RH  014%=      5-min Rain = 0
KSDS 110605Z 02013KT 15/M11 A2994 RMK A01 T01541113  RH  015%=      5-min Rain = 0
KSDS 110610Z 02014KT 15/M11 A2995 RMK A01 T01511112  RH  015%=      5-min Rain = 0
KSDS 110615Z 01014KT 15/M11 A2995 RMK A01 T01481110  RH  016%=      5-min Rain = 0
KSDS 110620Z 01015KT 15/M11 A2996 RMK A01 T01451108  RH  016%=      5-min Rain = 0
KSDS 110625Z 01015G20KT 14/M11 A2997 RMK A01 T01421106  RH  017%=      5-min Rain = 0
KSDS 110630Z 00018G25KT 14/M10 A2997 RMK A01 T01391103  RH  018%=      5-min Rain = 0
KSDS 110635Z 36020KT 14/M10 A2998 RMK A01 T01361098  RH  019%=      5-min Rain = 0
KSDS 110640Z 01021G27KT 13/M09 A2998 RMK A01 T01341088  RH  020%=      5-min Rain = 0
KSDS 110645Z 01023KT 13/M08 A2998 RMK A01 T01321083  RH  022%=      5-min Rain = 0
KSDS 110650Z 01021G28KT 13/M08 A2999 RMK A01 T01281077  RH  023%=      5-min Rain = 0
KSDS 110655Z 01024G32KT 13/M07 A2999 RMK A01 T01251071  RH  025%=      5-min Rain = 0
KSDS 110700Z 35019G28KT 12/M07 A30 RMK A01 T01241068  RH  025%=      5-min Rain = 0
KSDS 110705Z 35016G25KT 12/M07 A30 RMK A01 T01221067  RH  026%=      5-min Rain = 0
KSDS 110710Z 02027G39KT 12/M07 A2999 RMK A01 T01211065  RH  027%=      5-min Rain = 0
KSDS 110715Z 02028G38KT 12/M06 A30 RMK A01 T01211064  RH  027%=      5-min Rain = 0
KSDS 110720Z 01019G24KT 12/M06 A3002 RMK A01 T01191064  RH  027%=      5-min Rain = 0
KSDS 110725Z 01020G28KT 12/M06 A3002 RMK A01 T01161063  RH  028%=      5-min Rain = 0
KSDS 110730Z 02022G29KT 11/M06 A3001 RMK A01 T01141063  RH  028%=      5-min Rain = 0
KSDS 110735Z 02026G33KT 11/M06 A3001 RMK A01 T01141063  RH  029%=      5-min Rain = 0
KSDS 110740Z 02023G33KT 11/M06 A3002 RMK A01 T01121063  RH  029%=      5-min Rain = 0
KSDS 110745Z 02023G30KT 11/M06 A3002 RMK A01 T01111062  RH  029%=      5-min Rain = 0
KSDS 110750Z 02023G34KT 11/M06 A3002 RMK A01 T01111061  RH  029%=      5-min Rain = 0
KSDS 110755Z 02021G28KT 11/M06 A3003 RMK A01 T01101060  RH  030%=      5-min Rain = 0
KSDS 110800Z 02023G32KT 11/M06 A3003 RMK A01 T01101058  RH  030%=      5-min Rain = 0
KSDS 110805Z 02023G32KT 11/M06 A3003 RMK A01 T01101057  RH  031%=      5-min Rain = 0
KSDS 110810Z 03022G29KT 11/M06 A3003 RMK A01 T01091056  RH  031%=      5-min Rain = 0
KSDS 110815Z 03022G32KT 11/M06 A3003 RMK A01 T01081055  RH  031%=      5-min Rain = 0
KSDS 110820Z 03022G31KT 11/M05 A3003 RMK A01 T01071054  RH  032%=      5-min Rain = 0
KSDS 110825Z 03023G31KT 11/M05 A3003 RMK A01 T01061053  RH  032%=      5-min Rain = 0
KSDS 110830Z 03022G32KT 11/M05 A3004 RMK A01 T01051052  RH  033%=      5-min Rain = 0
KSDS 110835Z 03022G30KT 11/M05 A3004 RMK A01 T01051051  RH  033%=      5-min Rain = 0
KSDS 110840Z 03023G31KT 11/M05 A3004 RMK A01 T01061050  RH  033%=      5-min Rain = 0
KSDS 110845Z 03024G33KT 11/M05 A3005 RMK A01 T01081049  RH  033%=      5-min Rain = 0
KSDS 110850Z 02025G33KT 11/M05 A3006 RMK A01 T01091048  RH  033%=      5-min Rain = 0
KSDS 110855Z 02024G34KT 11/M05 A3006 RMK A01 T01091048  RH  033%=      5-min Rain = 0
KSDS 110900Z 03024G35KT 11/M05 A3006 RMK A01 T01071047  RH  034%=      5-min Rain = 0
KSDS 110905Z 03023G30KT 11/M05 A3006 RMK A01 T01061047  RH  034%=      5-min Rain = 0
KSDS 110910Z 02023G31KT 11/M05 A3006 RMK A01 T01061047  RH  034%=      5-min Rain = 0
KSDS 110915Z 02024G36KT 11/M05 A3006 RMK A01 T01051047  RH  034%=      5-min Rain = 0
KSDS 110920Z 03023G31KT 10/M05 A3007 RMK A01 T01041047  RH  034%=      5-min Rain = 0
KSDS 110925Z 03021G29KT 10/M05 A3007 RMK A01 T01041047  RH  034%=      5-min Rain = 0
KSDS 110930Z 03022G29KT 10/M05 A3007 RMK A01 T01041048  RH  034%=      5-min Rain = 0
KSDS 110935Z 03023G32KT 10/M05 A3007 RMK A01 T01041048  RH  034%=      5-min Rain = 0
KSDS 110940Z 03022G28KT 10/M05 A3007 RMK A01 T01031049  RH  034%=      5-min Rain = 0
KSDS 110945Z 03022G32KT 10/M05 A3007 RMK A01 T01031050  RH  034%=      5-min Rain = 0
KSDS 110950Z 03019G31KT 10/M05 A3007 RMK A01 T01021051  RH  034%=      5-min Rain = 0
KSDS 110955Z 03017G23KT 10/M05 A3008 RMK A01 T01021051  RH  034%=      5-min Rain = 0
KSDS 111000Z 02021G28KT 10/M05 A3007 RMK A01 T01011054  RH  033%=      5-min Rain = 0
KSDS 111005Z 03020G25KT 10/M06 A3007 RMK A01 T01001057  RH  033%=      5-min Rain = 0
KSDS 111010Z 03022G29KT 10/M06 A3008 RMK A01 T01001060  RH  032%=      5-min Rain = 0
KSDS 111015Z 03022G30KT 10/M06 A3008 RMK A01 T00991061  RH  032%=      5-min Rain = 0
KSDS 111020Z 03021G29KT 10/M06 A3007 RMK A01 T00991062  RH  032%=      5-min Rain = 0
KSDS 111025Z 03023G29KT 10/M06 A3007 RMK A01 T00991063  RH  031%=      5-min Rain = 0
KSDS 111030Z 03021G28KT 10/M06 A3007 RMK A01 T00981063  RH  032%=      5-min Rain = 0
KSDS 111035Z 03020G27KT 10/M06 A3008 RMK A01 T00971064  RH  032%=      5-min Rain = 0
KSDS 111040Z 03021G29KT 10/M07 A3008 RMK A01 T00961065  RH  032%=      5-min Rain = 0
KSDS 111045Z 03020G27KT 10/M06 A3008 RMK A01 T00951064  RH  032%=      5-min Rain = 0
KSDS 111050Z 03020G27KT 09/M06 A3008 RMK A01 T00941064  RH  032%=      5-min Rain = 0
KSDS 111055Z 03021G26KT 10/M07 A3009 RMK A01 T00951065  RH  032%=      5-min Rain = 0
KSDS 111100Z 03019G25KT 09/M07 A3009 RMK A01 T00941065  RH  032%=      5-min Rain = 0
KSDS 111105Z 03021G30KT 09/M07 A3009 RMK A01 T00931065  RH  032%=      5-min Rain = 0
KSDS 111110Z 03020G28KT 09/M07 A301 RMK A01 T00941066  RH  032%=      5-min Rain = 0
KSDS 111115Z 03020G26KT 09/M07 A301 RMK A01 T00931065  RH  032%=      5-min Rain = 0
KSDS 111120Z 03020G26KT 09/M06 A301 RMK A01 T00921064  RH  033%=      5-min Rain = 0
KSDS 111125Z 03020G26KT 09/M06 A301 RMK A01 T00921063  RH  033%=      5-min Rain = 0
KSDS 111130Z 02017G23KT 09/M06 A3011 RMK A01 T00901062  RH  033%=      5-min Rain = 0
KSDS 111135Z 02018G24KT 09/M06 A3011 RMK A01 T00901062  RH  034%=      5-min Rain = 0
KSDS 111140Z 02018G24KT 09/M06 A3012 RMK A01 T00881061  RH  034%=      5-min Rain = 0
KSDS 111145Z 02019G26KT 09/M06 A3012 RMK A01 T00881060  RH  034%=      5-min Rain = 0
KSDS 111150Z 02020G26KT 09/M06 A3012 RMK A01 T00881060  RH  035%=      5-min Rain = 0
KSDS 111155Z 02020G28KT 09/M06 A3012 RMK A01 T00871060  RH  035%=      5-min Rain = 0
KSDS 111200Z 02020G28KT 09/M06 A3013 RMK A01 T00871059  RH  035%=      5-min Rain = 0
KSDS 111205Z 02019G27KT 09/M06 A3013 RMK A01 T00851058  RH  036%=      5-min Rain = 0
KSDS 111210Z 02019G27KT 09/M06 A3013 RMK A01 T00851058  RH  036%=      5-min Rain = 0
KSDS 111215Z 02023G29KT 08/M06 A3014 RMK A01 T00841060  RH  036%=      5-min Rain = 0
KSDS 111220Z 02019G25KT 08/M06 A3015 RMK A01 T00841060  RH  036%=      5-min Rain = 0
KSDS 111225Z 02018G26KT 08/M06 A3016 RMK A01 T00821060  RH  036%=      5-min Rain = 0
KSDS 111230Z 01019G24KT 08/M06 A3016 RMK A01 T00791060  RH  037%=      5-min Rain = 0
KSDS 111235Z 02019G25KT 08/M06 A3017 RMK A01 T00781061  RH  037%=      5-min Rain = 0
KSDS 111240Z 02021G27KT 08/M06 A3016 RMK A01 T00781061  RH  037%=      5-min Rain = 0
KSDS 111245Z 02018G25KT 08/M06 A3017 RMK A01 T00781061  RH  037%=      5-min Rain = 0
KSDS 111250Z 01018G23KT 08/M06 A3017 RMK A01 T00751061  RH  038%=      5-min Rain = 0
KSDS 111255Z 01016G21KT 07/M06 A3017 RMK A01 T00741061  RH  038%=      5-min Rain = 0
KSDS 111300Z 01015G20KT 07/M06 A3018 RMK A01 T00721062  RH  038%=      5-min Rain = 0
KSDS 111305Z 02015G25KT 07/M06 A3019 RMK A01 T00721062  RH  038%=      5-min Rain = 0
KSDS 111310Z 02017G23KT 07/M06 A3019 RMK A01 T00711064  RH  038%=      5-min Rain = 0
KSDS 111315Z 02017G25KT 07/M07 A3019 RMK A01 T00711067  RH  037%=      5-min Rain = 0
KSDS 111320Z 02018G25KT 07/M07 A302 RMK A01 T00701069  RH  036%=      5-min Rain = 0
KSDS 111325Z 02017G24KT 07/M07 A302 RMK A01 T00701070  RH  036%=      5-min Rain = 0
KSDS 111330Z 02014G20KT 07/M07 A302 RMK A01 T00691070  RH  036%=      5-min Rain = 0
KSDS 111335Z 02016G21KT 07/M07 A302 RMK A01 T00691071  RH  036%=      5-min Rain = 0
KSDS 111340Z 02017G22KT 07/M07 A3021 RMK A01 T00691073  RH  036%=      5-min Rain = 0
KSDS 111345Z 02017G25KT 07/M07 A3021 RMK A01 T00681074  RH  036%=      5-min Rain = 0
KSDS 111350Z 02017G23KT 07/M07 A3022 RMK A01 T00681074  RH  035%=      5-min Rain = 0
KSDS 111355Z 02018G24KT 07/M08 A3022 RMK A01 T00681075  RH  035%=      5-min Rain = 0
KSDS 111400Z 02018G24KT 07/M08 A3022 RMK A01 T00681076  RH  035%=      5-min Rain = 0
KSDS 111405Z 02019G24KT 07/M08 A3022 RMK A01 T00681077  RH  035%=      5-min Rain = 0
KSDS 111410Z 02016G21KT 07/M08 A3023 RMK A01 T00691077  RH  035%=      5-min Rain = 0
KSDS 111415Z 02016KT 07/M08 A3023 RMK A01 T00691077  RH  035%=      5-min Rain = 0
KSDS 111420Z 02014KT 07/M08 A3024 RMK A01 T00691076  RH  035%=      5-min Rain = 0
KSDS 111425Z 01016G24KT 07/M08 A3024 RMK A01 T00701079  RH  034%=      5-min Rain = 0
KSDS 111430Z 02019G27KT 07/M08 A3024 RMK A01 T00681083  RH  033%=      5-min Rain = 0
KSDS 111435Z 02016G22KT 07/M08 A3024 RMK A01 T00701083  RH  033%=      5-min Rain = 0
KSDS 111440Z 02017G22KT 07/M08 A3024 RMK A01 T00711082  RH  033%=      5-min Rain = 0
KSDS 111445Z 02017G22KT 07/M08 A3025 RMK A01 T00731082  RH  032%=      5-min Rain = 0
KSDS 111450Z 02018G23KT 08/M08 A3025 RMK A01 T00751084  RH  031%=      5-min Rain = 0
KSDS 111455Z 02019G24KT 07/M08 A3025 RMK A01 T00731083  RH  032%=      5-min Rain = 0
KSDS 111500Z 02018KT 07/M08 A3025 RMK A01 T00731084  RH  032%=      5-min Rain = 0
KSDS 111505Z 02018G24KT 07/M09 A3025 RMK A01 T00721087  RH  031%=      5-min Rain = 0
KSDS 111510Z 03017G25KT 08/M09 A3025 RMK A01 T00751090  RH  030%=      5-min Rain = 0
KSDS 111515Z 03019G27KT 08/M09 A3026 RMK A01 T00751093  RH  029%=      5-min Rain = 0
KSDS 111520Z 03020G26KT 08/M09 A3026 RMK A01 T00791094  RH  028%=      5-min Rain = 0
KSDS 111525Z 03020G28KT 08/M10 A3027 RMK A01 T00761095  RH  028%=      5-min Rain = 0
KSDS 111530Z 03020G25KT 07/M10 A3027 RMK A01 T00731095  RH  029%=      5-min Rain = 0
KSDS 111535Z 03017G24KT 07/M09 A3027 RMK A01 T00721093  RH  030%=      5-min Rain = 0
KSDS 111540Z 03018G25KT 07/M10 A3027 RMK A01 T00701097  RH  029%=      5-min Rain = 0
KSDS 111545Z 03017G22KT 07/M09 A3028 RMK A01 T00701093  RH  030%=      5-min Rain = 0
KSDS 111550Z 02016G23KT 07/M09 A3028 RMK A01 T00691089  RH  031%=      5-min Rain = 0
KSDS 111555Z 02016G22KT 07/M09 A3028 RMK A01 T00711091  RH  030%=      5-min Rain = 0
KSDS 111600Z 02017KT 07/M09 A3028 RMK A01 T00711090  RH  031%=      5-min Rain = 0
KSDS 111605Z 01016G23KT 07/M09 A3029 RMK A01 T00701090  RH  031%=      5-min Rain = 0
KSDS 111610Z 02018G24KT 07/M09 A3029 RMK A01 T00701092  RH  030%=      5-min Rain = 0
KSDS 111615Z 03016G23KT 07/M09 A3029 RMK A01 T00711093  RH  030%=      5-min Rain = 0
KSDS 111620Z 02015KT 07/M09 A303 RMK A01 T00731089  RH  031%=      5-min Rain = 0
KSDS 111625Z 02017G23KT 07/M09 A303 RMK A01 T00731093  RH  029%=      5-min Rain = 0
KSDS 111630Z 03016G22KT 07/M09 A303 RMK A01 T00731092  RH  030%=      5-min Rain = 0
KSDS 111635Z 02018G24KT 08/M09 A303 RMK A01 T00751093  RH  029%=      5-min Rain = 0
KSDS 111640Z 02016KT 08/M09 A303 RMK A01 T00781088  RH  030%=      5-min Rain = 0
KSDS 111645Z 01015KT 08/M09 A303 RMK A01 T00831087  RH  029%=      5-min Rain = 0
KSDS 111650Z 01015G20KT 09/M09 A303 RMK A01 T00851087  RH  029%=      5-min Rain = 0
KSDS 111655Z 02017G23KT 08/M10 A303 RMK A01 T00781095  RH  028%=      5-min Rain = 0
KSDS 111700Z 03016G22KT 07/M10 A303 RMK A01 T00731096  RH  029%=      5-min Rain = 0
KSDS 111705Z 02014G20KT 07/M09 A303 RMK A01 T00741090  RH  030%=      5-min Rain = 0
KSDS 111710Z 01015G20KT 08/M09 A3031 RMK A01 T00751089  RH  030%=      5-min Rain = 0
KSDS 111715Z 02015G22KT 08/M09 A3031 RMK A01 T00771089  RH  030%=      5-min Rain = 0
KSDS 111720Z 02016G21KT 08/M10 A3031 RMK A01 T00781095  RH  028%=      5-min Rain = 0
KSDS 111725Z 03014G20KT 08/M09 A3031 RMK A01 T00791091  RH  029%=      5-min Rain = 0
KSDS 111730Z 03013G18KT 08/M09 A3031 RMK A01 T00791088  RH  029%=      5-min Rain = 0
KSDS 111735Z 02014KT 08/M09 A3031 RMK A01 T00791090  RH  029%=      5-min Rain = 0
KSDS 111740Z 03012G18KT 08/M09 A3031 RMK A01 T00791088  RH  030%=      5-min Rain = 0
KSDS 111745Z 02013G18KT 09/M09 A3031 RMK A01 T00851087  RH  028%=      5-min Rain = 0
KSDS 111750Z 02014KT 09/M09 A3031 RMK A01 T00861086  RH  029%=      5-min Rain = 0
KSDS 111755Z 01013KT 09/M09 A3031 RMK A01 T00881085  RH  029%=      5-min Rain = 0
KSDS 111800Z 02012G18KT 08/M09 A3031 RMK A01 T00831087  RH  029%=      5-min Rain = 0
KSDS 111805Z 02013KT 08/M09 A3031 RMK A01 T00821089  RH  029%=      5-min Rain = 0
KSDS 111810Z 01014G19KT 08/M09 A3031 RMK A01 T00831087  RH  029%=      5-min Rain = 0
KSDS 111815Z 01014G20KT 08/M09 A3031 RMK A01 T00821088  RH  029%=      5-min Rain = 0
KSDS 111820Z 02013KT 08/M09 A3031 RMK A01 T00831089  RH  029%=      5-min Rain = 0
KSDS 111825Z 01012KT 08/M09 A3032 RMK A01 T00831087  RH  029%=      5-min Rain = 0
KSDS 111830Z 01012KT 08/M08 A3032 RMK A01 T00841084  RH  029%=      5-min Rain = 0
KSDS 111835Z 02011G16KT 09/M08 A3032 RMK A01 T00901084  RH  028%=      5-min Rain = 0
KSDS 111840Z 01013G18KT 10/M09 A3032 RMK A01 T00951085  RH  027%=      5-min Rain = 0
KSDS 111845Z 00013G18KT 09/M09 A3032 RMK A01 T00941085  RH  027%=      5-min Rain = 0
KSDS 111850Z 01013G19KT 10/M09 A3031 RMK A01 T00991086  RH  026%=      5-min Rain = 0
KSDS 111855Z 01011KT 10/M09 A3031 RMK A01 T00971087  RH  026%=      5-min Rain = 0
KSDS 111900Z 01014G20KT 10/M09 A3031 RMK A01 T01021088  RH  025%=      5-min Rain = 0
KSDS 111905Z 02012G17KT 10/M09 A303 RMK A01 T01021088  RH  025%=      5-min Rain = 0
KSDS 111910Z 03011G17KT 10/M09 A303 RMK A01 T01011090  RH  025%=      5-min Rain = 0
KSDS 111915Z 02013G20KT 10/M09 A303 RMK A01 T01001089  RH  025%=      5-min Rain = 0
KSDS 111920Z 02015G20KT 10/M09 A3029 RMK A01 T01001088  RH  026%=      5-min Rain = 0
KSDS 111925Z 03014KT 10/M08 A3029 RMK A01 T00991083  RH  027%=      5-min Rain = 0
KSDS 111930Z 03013KT 10/M08 A3029 RMK A01 T01021084  RH  026%=      5-min Rain = 0
KSDS 111935Z 36014G19KT 10/M09 A3029 RMK A01 T01041086  RH  025%=      5-min Rain = 0
KSDS 111940Z 01013G19KT 11/M09 A3029 RMK A01 T01121087  RH  024%=      5-min Rain = 0
KSDS 111945Z 02014G20KT 11/M09 A3029 RMK A01 T01141091  RH  023%=      5-min Rain = 0
KSDS 111950Z 01015G20KT 11/M09 A3029 RMK A01 T01081092  RH  024%=      5-min Rain = 0
KSDS 111955Z 01016G22KT 11/M09 A3029 RMK A01 T01051085  RH  025%=      5-min Rain = 0
KSDS 112000Z 00015G20KT 10/M07 A3029 RMK A01 T01021065  RH  030%=      5-min Rain = 0
KSDS 112005Z 01015G20KT 11/M06 A3029 RMK A01 T01051064  RH  030%=      5-min Rain = 0
KSDS 112010Z 02015KT 11/M06 A3029 RMK A01 T01081062  RH  030%=      5-min Rain = 0
KSDS 112015Z 01013KT 11/M07 A3029 RMK A01 T01121065  RH  028%=      5-min Rain = 0
KSDS 112020Z 02014G20KT 11/M08 A3028 RMK A01 T01141080  RH  025%=      5-min Rain = 0
KSDS 112025Z 01016G24KT 11/M08 A3028 RMK A01 T01131075  RH  026%=      5-min Rain = 0
KSDS 112030Z 01015G22KT 11/M05 A3028 RMK A01 T01131054  RH  031%=      5-min Rain = 0
KSDS 112035Z 03013G20KT 10/M05 A3028 RMK A01 T01041050  RH  033%=      5-min Rain = 0
KSDS 112040Z 02013G18KT 11/M05 A3028 RMK A01 T01121054  RH  031%=      5-min Rain = 0
KSDS 112045Z 02011KT 12/M06 A3027 RMK A01 T01161060  RH  029%=      5-min Rain = 0
KSDS 112050Z 01011G19KT 12/M07 A3027 RMK A01 T01161070  RH  027%=      5-min Rain = 0
KSDS 112055Z 02012G18KT 12/M08 A3027 RMK A01 T01181078  RH  025%=      5-min Rain = 0
KSDS 112100Z 04012G19KT 12/M08 A3027 RMK A01 T01161078  RH  025%=      5-min Rain = 0
KSDS 112105Z 04012KT 12/M08 A3027 RMK A01 T01151078  RH  025%=      5-min Rain = 0
KSDS 112110Z 01013G18KT 12/M08 A3027 RMK A01 T01181081  RH  024%=      5-min Rain = 0
KSDS 112115Z 01010G15KT 12/M08 A3027 RMK A01 T01191079  RH  024%=      5-min Rain = 0
KSDS 112120Z 04013G18KT 13/M08 A3026 RMK A01 T01251082  RH  023%=      5-min Rain = 0
KSDS 112125Z 02012G18KT 12/M08 A3027 RMK A01 T01231083  RH  023%=      5-min Rain = 0
KSDS 112130Z 01011KT 12/M08 A3027 RMK A01 T01191080  RH  024%=      5-min Rain = 0
KSDS 112135Z 01010KT 12/M08 A3026 RMK A01 T01191078  RH  024%=      5-min Rain = 0
KSDS 112140Z 02010G18KT 12/M08 A3026 RMK A01 T01211079  RH  024%=      5-min Rain = 0
KSDS 112145Z 02011KT 12/M09 A3026 RMK A01 T01201085  RH  023%=      5-min Rain = 0
KSDS 112150Z 01011G17KT 12/M09 A3026 RMK A01 T01201091  RH  022%=      5-min Rain = 0
KSDS 112155Z 04011G16KT 12/M09 A3025 RMK A01 T01231094  RH  021%=      5-min Rain = 0
KSDS 112200Z 03010G17KT 12/M10 A3025 RMK A01 T01241096  RH  021%=      5-min Rain = 0
KSDS 112205Z 01010G15KT 12/M10 A3025 RMK A01 T01231097  RH  020%=      5-min Rain = 0
KSDS 112210Z 01011KT 12/M10 A3025 RMK A01 T01241097  RH  020%=      5-min Rain = 0
KSDS 112215Z 02009KT 13/M10 A3025 RMK A01 T01261096  RH  020%=      5-min Rain = 0
KSDS 112220Z 02010G15KT 12/M10 A3025 RMK A01 T01241097  RH  020%=      5-min Rain = 0
KSDS 112225Z 03008G14KT 12/M10 A3025 RMK A01 T01211098  RH  020%=      5-min Rain = 0
KSDS 112230Z 02009KT 12/M10 A3025 RMK A01 T01241098  RH  020%=      5-min Rain = 0
KSDS 112235Z 01008G14KT 13/M10 A3025 RMK A01 T01261100  RH  020%=      5-min Rain = 0
KSDS 112240Z 00009KT 13/M10 A3025 RMK A01 T01281100  RH  019%=      5-min Rain = 0
KSDS 112245Z 02009KT 13/M10 A3025 RMK A01 T01261101  RH  019%=      5-min Rain = 0
KSDS 112250Z 01010G16KT 13/M10 A3025 RMK A01 T01261102  RH  019%=      5-min Rain = 0
KSDS 112255Z 01010G17KT 13/M10 A3026 RMK A01 T01251103  RH  019%=      5-min Rain = 0
KSDS 112300Z 03009KT 12/M10 A3026 RMK A01 T01241103  RH  019%=      5-min Rain = 0
KSDS 112305Z 04010KT 13/M10 A3025 RMK A01 T01251104  RH  019%=      5-min Rain = 0
KSDS 112310Z 03011KT 12/M10 A3025 RMK A01 T01231103  RH  019%=      5-min Rain = 0
KSDS 112315Z 02008G13KT 12/M10 A3025 RMK A01 T01221102  RH  020%=      5-min Rain = 0
KSDS 112320Z 01009G14KT 12/M10 A3025 RMK A01 T01231102  RH  020%=      5-min Rain = 0
KSDS 112325Z 04008G13KT 12/M10 A3025 RMK A01 T01241101  RH  020%=      5-min Rain = 0
KSDS 112330Z 03008KT 13/M10 A3026 RMK A01 T01251102  RH  019%=      5-min Rain = 0
KSDS 112335Z 03008KT 12/M10 A3026 RMK A01 T01241103  RH  019%=      5-min Rain = 0
KSDS 112340Z 04009KT 12/M10 A3026 RMK A01 T01221103  RH  020%=      5-min Rain = 0
KSDS 112345Z 02010G15KT 12/M10 A3026 RMK A01 T01211104  RH  020%=      5-min Rain = 0
KSDS 112350Z 02012KT 12/M11 A3026 RMK A01 T01201106  RH  019%=      5-min Rain = 0
KSDS 112355Z 02011KT 12/M11 A3027 RMK A01 T01191106  RH  020%=      5-min Rain = 0
KSDS 120000Z 02010KT 12/M11 A3027 RMK A01 T01181106  RH  020%=      5-min Rain = 0
KSDS 120005Z 02010KT 12/M11 A3027 RMK A01 T01161106  RH  020%=      5-min Rain = 0
KSDS 120010Z 01011KT 12/M11 A3027 RMK A01 T01151105  RH  020%=      5-min Rain = 0
KSDS 120015Z 02010KT 11/M10 A3027 RMK A01 T01141104  RH  020%=      5-min Rain = 0
KSDS 120020Z 02010KT 11/M10 A3028 RMK A01 T01131104  RH  021%=      5-min Rain = 0
KSDS 120025Z 02010KT 11/M10 A3028 RMK A01 T01111104  RH  021%=      5-min Rain = 0
KSDS 120030Z 01008KT 11/M11 A3028 RMK A01 T01071105  RH  021%=      5-min Rain = 0
KSDS 120035Z 02009G14KT 10/M11 A3028 RMK A01 T01031105  RH  022%=      5-min Rain = 0
KSDS 120040Z 02008KT 10/M11 A3028 RMK A01 T01021105  RH  022%=      5-min Rain = 0
KSDS 120045Z 02006KT 10/M11 A3029 RMK A01 T00971105  RH  023%=      5-min Rain = 0
KSDS 120050Z 01006KT 09/M11 A3029 RMK A01 T00921105  RH  023%=      5-min Rain = 0
KSDS 120055Z 00006KT 09/M11 A3029 RMK A01 T00871106  RH  024%=      5-min Rain = 0
KSDS 120100Z 00006KT 08/M11 A3029 RMK A01 T00821107  RH  025%=      5-min Rain = 0
KSDS 120105Z 36006KT 08/M11 A3029 RMK A01 T00781107  RH  026%=      5-min Rain = 0
KSDS 120110Z 00006KT 08/M11 A3029 RMK A01 T00761107  RH  026%=      5-min Rain = 0
KSDS 120115Z 36006KT 07/M11 A303 RMK A01 T00731107  RH  026%=      5-min Rain = 0
KSDS 120120Z 35006KT 07/M11 A303 RMK A01 T00711108  RH  026%=      5-min Rain = 0
KSDS 120125Z 35006KT 07/M11 A303 RMK A01 T00681109  RH  027%=      5-min Rain = 0
KSDS 120130Z 34006KT 06/M11 A303 RMK A01 T00631110  RH  027%=      5-min Rain = 0
KSDS 120135Z 35006KT 06/M11 A303 RMK A01 T00591110  RH  028%=      5-min Rain = 0
KSDS 120140Z 35007KT 06/M11 A303 RMK A01 T00581110  RH  029%=      5-min Rain = 0
KSDS 120145Z 35006KT 06/M11 A303 RMK A01 T00591109  RH  029%=      5-min Rain = 0
KSDS 120150Z 35006KT 06/M11 A303 RMK A01 T00581109  RH  029%=      5-min Rain = 0
KSDS 120155Z 35007KT 05/M11 A303 RMK A01 T00541111  RH  029%=      5-min Rain = 0
KSDS 120200Z 35007KT 05/M11 A3031 RMK A01 T00511111  RH  030%=      5-min Rain = 0
KSDS 120205Z 35007KT 05/M11 A3031 RMK A01 T00501110  RH  030%=      5-min Rain = 0
KSDS 120210Z 35007KT 05/M11 A3031 RMK A01 T00471112  RH  030%=      5-min Rain = 0
KSDS 120215Z 35007KT 05/M11 A3031 RMK A01 T00451112  RH  031%=      5-min Rain = 0
KSDS 120220Z 35007KT 04/M11 A3031 RMK A01 T00431112  RH  031%=      5-min Rain = 0
KSDS 120225Z 34007KT 04/M11 A3031 RMK A01 T00411112  RH  032%=      5-min Rain = 0
KSDS 120230Z 34007KT 04/M11 A3032 RMK A01 T00411111  RH  032%=      5-min Rain = 0
KSDS 120235Z 35007KT 04/M11 A3032 RMK A01 T00411111  RH  032%=      5-min Rain = 0
KSDS 120240Z 35007KT 04/M11 A3032 RMK A01 T00391112  RH  032%=      5-min Rain = 0
KSDS 120245Z 35006KT 04/M11 A3032 RMK A01 T00381112  RH  032%=      5-min Rain = 0
KSDS 120250Z 36006KT 04/M11 A3032 RMK A01 T00391112  RH  032%=      5-min Rain = 0
KSDS 120255Z 35005KT 04/M11 A3033 RMK A01 T00411111  RH  032%=      5-min Rain = 0
KSDS 120300Z 35005KT 04/M11 A3033 RMK A01 T00421111  RH  032%=      5-min Rain = 0
KSDS 120305Z 34005KT 04/M11 A3033 RMK A01 T00421111  RH  032%=      5-min Rain = 0
KSDS 120310Z 35005KT 04/M11 A3033 RMK A01 T00391111  RH  032%=      5-min Rain = 0
KSDS 120315Z 35006KT 04/M11 A3033 RMK A01 T00391111  RH  032%=      5-min Rain = 0
KSDS 120320Z 35006KT 04/M11 A3033 RMK A01 T00391111  RH  032%=      5-min Rain = 0
KSDS 120325Z 35006KT 04/M11 A3033 RMK A01 T00401110  RH  032%=      5-min Rain = 0
KSDS 120330Z 36007KT 04/M11 A3033 RMK A01 T00381110  RH  033%=      5-min Rain = 0
KSDS 120335Z 36007KT 04/M11 A3034 RMK A01 T00371109  RH  033%=      5-min Rain = 0
KSDS 120340Z 00006KT 04/M11 A3034 RMK A01 T00371108  RH  034%=      5-min Rain = 0
KSDS 120345Z 01005KT 04/M11 A3034 RMK A01 T00381107  RH  033%=      5-min Rain = 0
KSDS 120350Z 00005KT 04/M11 A3034 RMK A01 T00421107  RH  033%=      5-min Rain = 0
KSDS 120355Z 00005KT 04/M11 A3034 RMK A01 T00431107  RH  032%=      5-min Rain = 0
KSDS 120400Z 00006KT 04/M11 A3034 RMK A01 T00411108  RH  033%=      5-min Rain = 0
KSDS 120405Z 01005KT 04/M11 A3034 RMK A01 T00411108  RH  033%=      5-min Rain = 0
KSDS 120410Z 01005KT 04/M11 A3034 RMK A01 T00411108  RH  033%=      5-min Rain = 0
KSDS 120415Z 01005KT 04/M11 A3034 RMK A01 T00411108  RH  033%=      5-min Rain = 0
KSDS 120420Z 02006KT 04/M11 A3034 RMK A01 T00411108  RH  033%=      5-min Rain = 0
KSDS 120425Z 02006KT 04/M11 A3034 RMK A01 T00411108  RH  033%=      5-min Rain = 0
KSDS 120430Z 02006KT 04/M11 A3034 RMK A01 T00421108  RH  032%=      5-min Rain = 0
KSDS 120435Z 02005KT 04/M11 A3034 RMK A01 T00441109  RH  032%=      5-min Rain = 0
KSDS 120440Z 02005KT 05/M11 A3035 RMK A01 T00461109  RH  031%=      5-min Rain = 0
KSDS 120445Z 02005KT 05/M11 A3035 RMK A01 T00481110  RH  031%=      5-min Rain = 0
KSDS 120450Z 02004KT 05/M11 A3035 RMK A01 T00491110  RH  030%=      5-min Rain = 0
KSDS 120455Z 02004KT 05/M11 A3035 RMK A01 T00511111  RH  030%=      5-min Rain = 0

Page generated in 0.0091 seconds.